createdAt,value
2022-10-08T00:01:12.119Z,12.10
2022-10-08T00:03:43.400Z,11.27
2022-10-08T00:06:19.671Z,10.97
2022-10-08T00:08:52.413Z,11.67
2022-10-08T00:11:22.714Z,12.40
2022-10-08T00:13:50.832Z,12.10
2022-10-08T00:16:30.482Z,11.77
2022-10-08T00:19:03.797Z,11.97
2022-10-08T00:21:36.798Z,11.50
2022-10-08T00:24:06.253Z,11.27
2022-10-08T00:26:37.596Z,11.47
2022-10-08T00:29:09.806Z,12.10
2022-10-08T00:31:40.565Z,11.53
2022-10-08T00:34:10.671Z,11.83
2022-10-08T00:36:39.447Z,12.37
2022-10-08T00:39:13.594Z,12.70
2022-10-08T00:41:42.638Z,12.23
2022-10-08T00:44:46.919Z,11.10
2022-10-08T00:47:22.133Z,11.87
2022-10-08T00:49:51.524Z,11.27
2022-10-08T00:52:19.657Z,12.20
2022-10-08T00:54:50.114Z,11.57
2022-10-08T00:57:18.351Z,10.93
2022-10-08T00:59:45.573Z,11.67
2022-10-08T01:02:13.714Z,11.93
2022-10-08T01:04:43.020Z,12.17
2022-10-08T01:07:22.029Z,12.37
2022-10-08T01:10:15.981Z,11.43
2022-10-08T01:13:01.878Z,11.73
2022-10-08T01:15:48.062Z,12.33
2022-10-08T01:18:30.732Z,11.73
2022-10-08T01:21:17.850Z,12.00
2022-10-08T01:24:06.365Z,11.70
2022-10-08T01:27:06.930Z,12.43
2022-10-08T01:29:42.499Z,11.37
2022-10-08T01:32:17.150Z,10.83
2022-10-08T01:34:50.858Z,11.37
2022-10-08T01:37:24.605Z,10.63
2022-10-08T01:39:55.170Z,10.63
2022-10-08T01:42:25.387Z,10.83
2022-10-08T01:45:00.322Z,10.93
2022-10-08T01:47:30.952Z,11.00
2022-10-08T01:50:07.556Z,11.30
2022-10-08T01:52:42.680Z,10.63
2022-10-08T01:55:17.790Z,11.00
2022-10-08T01:57:45.761Z,11.40
2022-10-08T02:00:15.231Z,10.83
2022-10-08T02:02:43.904Z,10.73
2022-10-08T02:05:11.800Z,10.13
2022-10-08T02:07:42.506Z,11.00
2022-10-08T02:10:24.218Z,10.27
2022-10-08T02:12:51.495Z,11.17
2022-10-08T02:15:51.519Z,10.80
2022-10-08T02:18:27.290Z,10.33
2022-10-08T02:21:04.227Z,11.27
2022-10-08T02:23:46.855Z,10.37
2022-10-08T02:26:21.264Z,10.50
2022-10-08T02:29:02.324Z,10.80
2022-10-08T02:31:46.807Z,10.60
2022-10-08T02:34:32.646Z,11.53
2022-10-08T02:37:24.548Z,10.67
2022-10-08T02:40:01.330Z,10.67
2022-10-08T02:42:31.552Z,10.90
2022-10-08T02:45:14.886Z,10.37
2022-10-08T02:47:44.331Z,10.97
2022-10-08T02:50:17.850Z,10.67
2022-10-08T02:52:47.251Z,11.10
2022-10-08T02:55:38.382Z,9.97
2022-10-08T02:58:08.651Z,11.03
2022-10-08T03:01:00.534Z,10.47
2022-10-08T03:03:37.172Z,10.60
2022-10-08T03:06:08.913Z,10.07
2022-10-08T03:08:41.095Z,10.90
2022-10-08T03:11:08.574Z,10.90
2022-10-08T03:13:39.672Z,11.27
2022-10-08T03:16:09.787Z,10.70
2022-10-08T03:18:39.019Z,11.63
2022-10-08T03:21:09.074Z,11.00
2022-10-08T03:23:36.182Z,10.93
2022-10-08T03:26:03.437Z,11.97
2022-10-08T03:28:30.445Z,10.53
2022-10-08T03:30:57.653Z,10.57
2022-10-08T03:33:24.888Z,11.00
2022-10-08T03:35:51.814Z,10.50
2022-10-08T03:38:18.898Z,10.47
2022-10-08T03:40:57.982Z,10.87
2022-10-08T03:43:30.959Z,10.90
2022-10-08T03:45:58.104Z,10.50
2022-10-08T03:48:25.118Z,9.30
2022-10-08T03:50:54.389Z,10.77
2022-10-08T03:53:22.509Z,9.97
2022-10-08T03:55:50.121Z,10.40
2022-10-08T03:58:17.891Z,10.07
2022-10-08T04:00:55.591Z,10.80
2022-10-08T04:03:22.571Z,10.47
2022-10-08T04:05:50.588Z,11.13
2022-10-08T04:08:17.633Z,10.47
2022-10-08T04:10:44.595Z,10.23
2022-10-08T04:13:11.774Z,10.57
2022-10-08T04:15:38.866Z,11.07
2022-10-08T04:18:07.268Z,11.00
2022-10-08T04:20:34.457Z,11.43
2022-10-08T04:23:01.423Z,10.07
2022-10-08T04:25:28.409Z,11.10
2022-10-08T04:27:55.584Z,11.43
2022-10-08T04:30:24.019Z,10.90
2022-10-08T04:32:51.358Z,11.77
2022-10-08T04:35:18.555Z,12.13
2022-10-08T04:37:45.617Z,11.97
2022-10-08T04:40:12.569Z,10.73
2022-10-08T04:42:39.738Z,12.97
2022-10-08T04:45:07.114Z,12.33
2022-10-08T04:47:34.046Z,11.87
2022-10-08T04:50:01.235Z,11.33
2022-10-08T04:52:28.188Z,11.97
2022-10-08T04:54:55.109Z,12.07
2022-10-08T04:57:22.319Z,11.60
2022-10-08T05:00:16.595Z,11.63
2022-10-08T05:02:36.592Z,11.63
2022-10-08T05:05:04.795Z,12.70
2022-10-08T05:07:31.739Z,12.37
2022-10-08T05:09:58.915Z,11.27
2022-10-08T05:12:25.829Z,11.57
2022-10-08T05:14:55.527Z,11.50
2022-10-08T05:17:22.769Z,11.77
2022-10-08T05:19:49.694Z,10.73
2022-10-08T05:22:16.694Z,11.23
2022-10-08T05:24:43.866Z,10.60
2022-10-08T05:27:11.342Z,11.60
2022-10-08T05:29:38.489Z,11.23
2022-10-08T05:32:05.690Z,12.13
2022-10-08T05:34:32.711Z,10.77
2022-10-08T05:36:59.713Z,12.10
2022-10-08T05:39:26.912Z,11.83
2022-10-08T05:41:54.437Z,10.70
2022-10-08T05:44:21.564Z,11.83
2022-10-08T05:46:48.910Z,11.63
2022-10-08T05:49:22.703Z,11.83
2022-10-08T05:51:50.584Z,11.73
2022-10-08T05:54:18.636Z,12.40
2022-10-08T05:56:45.582Z,13.53
2022-10-08T05:59:18.038Z,12.87
2022-10-08T06:01:45.461Z,12.53
2022-10-08T06:04:13.067Z,12.30
2022-10-08T06:06:42.654Z,12.70
2022-10-08T06:09:14.192Z,13.03
2022-10-08T06:11:43.124Z,12.77
2022-10-08T06:14:12.089Z,13.10
2022-10-08T06:16:40.152Z,12.27
2022-10-08T06:19:08.839Z,11.80
2022-10-08T06:21:36.595Z,11.50
2022-10-08T06:24:07.397Z,12.33
2022-10-08T06:26:37.463Z,11.60
2022-10-08T06:29:06.324Z,11.07
2022-10-08T06:31:35.150Z,11.83
2022-10-08T06:34:04.295Z,11.23
2022-10-08T06:36:32.577Z,11.23
2022-10-08T06:39:05.385Z,11.13
2022-10-08T06:41:35.983Z,11.60
2022-10-08T06:44:05.050Z,10.87
2022-10-08T06:46:32.872Z,10.30
2022-10-08T06:49:01.302Z,10.67
2022-10-08T06:51:29.389Z,11.77
2022-10-08T06:54:01.439Z,11.53
2022-10-08T06:56:33.776Z,10.60
2022-10-08T06:59:00.700Z,12.73
2022-10-08T07:01:33.364Z,11.03
2022-10-08T07:04:02.644Z,10.80
2022-10-08T07:06:29.913Z,11.27
2022-10-08T07:08:59.479Z,12.63
2022-10-08T07:11:27.600Z,10.50
2022-10-08T07:13:55.764Z,10.67
2022-10-08T07:16:24.830Z,11.13
2022-10-08T07:18:53.815Z,11.27
2022-10-08T07:21:22.330Z,11.50
2022-10-08T07:23:49.694Z,11.33
2022-10-08T07:26:19.368Z,10.73
2022-10-08T07:28:53.499Z,10.40
2022-10-08T07:31:23.906Z,10.80
2022-10-08T07:33:51.737Z,11.30
2022-10-08T07:36:24.035Z,10.77
2022-10-08T07:38:56.445Z,11.70
2022-10-08T07:41:23.846Z,10.20
2022-10-08T07:43:55.419Z,11.50
2022-10-08T07:46:22.775Z,11.57
2022-10-08T07:48:50.902Z,10.70
2022-10-08T07:51:19.703Z,11.60
2022-10-08T07:53:47.942Z,9.97
2022-10-08T07:56:17.299Z,10.33
2022-10-08T07:58:44.872Z,9.87
2022-10-08T08:01:14.811Z,10.87
2022-10-08T08:03:42.512Z,10.83
2022-10-08T08:06:12.755Z,10.47
2022-10-08T08:08:41.990Z,10.47
2022-10-08T08:11:11.088Z,11.50
2022-10-08T08:13:39.689Z,10.67
2022-10-08T08:16:10.481Z,9.87
2022-10-08T08:18:40.001Z,10.63
2022-10-08T08:21:10.210Z,10.50
2022-10-08T08:23:45.579Z,10.47
2022-10-08T08:26:36.026Z,9.53
2022-10-08T08:29:06.307Z,9.30
2022-10-08T08:31:36.092Z,9.77
2022-10-08T08:34:09.036Z,9.53
2022-10-08T08:36:39.505Z,9.73
2022-10-08T08:39:08.886Z,9.50
2022-10-08T08:41:56.167Z,10.00
2022-10-08T08:44:31.162Z,7.90
2022-10-08T08:47:06.265Z,8.80
2022-10-08T08:49:58.533Z,9.07
2022-10-08T08:52:28.653Z,8.60
2022-10-08T08:54:56.230Z,7.97
2022-10-08T08:57:57.386Z,8.67
2022-10-08T09:00:33.164Z,7.80
2022-10-08T09:03:04.201Z,8.20
2022-10-08T09:05:35.893Z,8.37
2022-10-08T09:08:34.886Z,8.60
2022-10-08T09:11:04.919Z,7.40
2022-10-08T09:13:45.866Z,8.40
2022-10-08T09:16:14.678Z,8.67
2022-10-08T09:18:47.335Z,8.50
2022-10-08T09:21:14.625Z,8.23
2022-10-08T09:23:41.626Z,8.43
2022-10-08T09:26:08.579Z,8.50
2022-10-08T09:28:47.880Z,8.77
2022-10-08T09:31:27.043Z,8.57
2022-10-08T09:33:58.353Z,8.60
2022-10-08T09:36:30.544Z,8.10
2022-10-08T09:38:59.809Z,8.07
2022-10-08T09:41:28.867Z,7.83
2022-10-08T09:44:18.309Z,7.87
2022-10-08T09:46:46.153Z,8.77
2022-10-08T09:49:29.586Z,8.43
2022-10-08T09:51:58.561Z,8.30
2022-10-08T09:54:29.332Z,8.17
2022-10-08T09:56:59.568Z,8.30
2022-10-08T09:59:30.031Z,8.10
2022-10-08T10:01:58.456Z,8.40
2022-10-08T10:04:38.571Z,9.20
2022-10-08T10:07:06.095Z,9.00
2022-10-08T10:09:55.951Z,8.30
2022-10-08T10:12:34.274Z,8.63
2022-10-08T10:15:04.550Z,8.23
2022-10-08T10:17:40.739Z,8.80
2022-10-08T10:20:19.129Z,7.83
2022-10-08T10:23:11.623Z,8.70
2022-10-08T10:26:14.778Z,8.17
2022-10-08T10:28:55.975Z,8.37
2022-10-08T10:31:31.465Z,8.57
2022-10-08T10:34:08.849Z,8.10
2022-10-08T10:36:42.111Z,8.33
2022-10-08T10:39:46.055Z,8.17
2022-10-08T10:42:16.272Z,6.93
2022-10-08T10:44:53.580Z,8.03
2022-10-08T10:47:30.987Z,8.03
2022-10-08T10:50:01.421Z,7.70
2022-10-08T10:52:35.631Z,8.30
2022-10-08T10:55:08.286Z,8.33
2022-10-08T10:58:06.103Z,7.90
2022-10-08T11:01:02.424Z,7.77
2022-10-08T11:03:44.335Z,7.73
2022-10-08T11:06:32.351Z,8.17
2022-10-08T11:09:06.452Z,8.10
2022-10-08T11:11:41.061Z,9.00
2022-10-08T11:14:32.892Z,9.50
2022-10-08T11:17:00.086Z,9.70
2022-10-08T11:19:42.101Z,10.10
2022-10-08T11:22:31.209Z,8.70
2022-10-08T11:25:07.418Z,9.30
2022-10-08T11:27:43.236Z,8.73
2022-10-08T11:30:17.875Z,8.70
2022-10-08T11:32:52.410Z,9.30
2022-10-08T11:35:38.424Z,9.30
2022-10-08T11:38:11.002Z,8.67
2022-10-08T11:40:46.028Z,9.17
2022-10-08T11:43:32.166Z,9.10
2022-10-08T11:46:28.779Z,9.93
2022-10-08T11:49:00.566Z,9.27
2022-10-08T11:51:31.984Z,9.23
2022-10-08T11:54:07.119Z,9.37
2022-10-08T11:56:37.328Z,9.00
2022-10-08T11:59:27.761Z,8.97
2022-10-08T12:01:58.621Z,9.13
2022-10-08T12:04:35.637Z,9.40
2022-10-08T12:07:29.172Z,10.23
2022-10-08T12:10:08.967Z,9.30
2022-10-08T12:12:51.416Z,9.37
2022-10-08T12:15:43.049Z,9.77
2022-10-08T12:18:10.328Z,9.90
2022-10-08T12:20:39.217Z,9.00
2022-10-08T12:23:11.151Z,9.10
2022-10-08T12:25:44.259Z,9.70
2022-10-08T12:28:35.656Z,9.67
2022-10-08T12:31:23.677Z,9.23
2022-10-08T12:36:46.945Z,9.73
2022-10-08T12:39:33.814Z,9.33
2022-10-08T12:42:14.384Z,9.17
2022-10-08T12:44:59.866Z,9.87
2022-10-08T12:47:43.135Z,9.97
2022-10-08T12:50:29.947Z,9.83
2022-10-08T12:53:00.841Z,10.00
2022-10-08T12:55:30.809Z,9.67
2022-10-08T12:58:00.499Z,9.47
2022-10-08T13:00:33.351Z,10.07
2022-10-08T13:03:02.188Z,10.30
2022-10-08T13:05:35.850Z,10.97
2022-10-08T13:08:38.806Z,9.50
2022-10-08T13:11:12.215Z,10.07
2022-10-08T13:13:39.356Z,10.83
2022-10-08T13:16:07.872Z,10.53
2022-10-08T13:18:37.082Z,11.47
2022-10-08T13:21:09.999Z,10.67
2022-10-08T13:23:43.498Z,11.10
2022-10-08T13:26:38.492Z,10.50
2022-10-08T13:29:24.050Z,10.60
2022-10-08T13:31:52.845Z,10.03
2022-10-08T13:34:20.206Z,9.50
2022-10-08T13:36:50.558Z,9.90
2022-10-08T13:39:24.039Z,10.60
2022-10-08T13:41:57.961Z,9.83
2022-10-08T13:44:27.097Z,9.67
2022-10-08T13:46:54.989Z,10.37
2022-10-08T13:49:24.619Z,10.47
2022-10-08T13:51:52.624Z,11.67
2022-10-08T13:54:28.616Z,10.60
2022-10-08T13:56:55.990Z,10.67
2022-10-08T13:59:26.956Z,10.63
2022-10-08T14:01:56.978Z,10.47
2022-10-08T14:04:24.028Z,10.60
2022-10-08T14:06:54.622Z,10.93
2022-10-08T14:09:24.345Z,11.30
2022-10-08T14:11:56.431Z,11.73
2022-10-08T14:14:24.289Z,11.87
2022-10-08T14:16:51.826Z,11.53
2022-10-08T14:19:21.221Z,11.67
2022-10-08T14:21:50.148Z,11.43
2022-10-08T14:24:17.168Z,12.30
2022-10-08T14:26:44.343Z,11.77
2022-10-08T14:29:11.530Z,11.00
2022-10-08T14:31:38.740Z,10.87
2022-10-08T14:34:06.052Z,10.23
2022-10-08T14:36:38.584Z,10.67
2022-10-08T14:39:05.944Z,10.20
2022-10-08T14:41:33.378Z,10.40
2022-10-08T14:44:00.590Z,9.27
2022-10-08T14:46:27.580Z,9.07
2022-10-08T14:48:54.608Z,9.33
2022-10-08T14:51:21.864Z,9.40
2022-10-08T14:53:50.273Z,8.90
2022-10-08T14:56:17.402Z,8.57
2022-10-08T14:58:44.676Z,8.90
2022-10-08T15:01:11.730Z,8.93
2022-10-08T15:03:38.777Z,9.00
2022-10-08T15:06:06.177Z,9.30
2022-10-08T15:08:34.003Z,9.47
2022-10-08T15:11:04.323Z,9.23
2022-10-08T15:13:31.828Z,9.60
2022-10-08T15:15:59.264Z,9.60
2022-10-08T15:18:30.204Z,9.40
2022-10-08T15:20:59.830Z,9.83
2022-10-08T15:23:27.543Z,10.13
2022-10-08T15:25:59.300Z,9.90
2022-10-08T15:28:27.949Z,10.67
2022-10-08T15:31:05.219Z,11.17
2022-10-08T15:33:38.177Z,11.50
2022-10-08T15:36:32.272Z,11.97
2022-10-08T15:39:07.511Z,11.13
2022-10-08T15:41:37.672Z,11.90
2022-10-08T15:44:16.607Z,12.27
2022-10-08T15:46:43.942Z,12.00
2022-10-08T15:49:11.348Z,11.57
2022-10-08T15:51:38.515Z,11.73
2022-10-08T15:54:05.887Z,13.17
2022-10-08T15:56:34.860Z,12.00
2022-10-08T15:59:03.099Z,12.23
2022-10-08T16:01:31.168Z,12.67
2022-10-08T16:03:59.957Z,12.07
2022-10-08T16:06:34.235Z,12.97
2022-10-08T16:09:02.026Z,13.30
2022-10-08T16:11:34.341Z,13.00
2022-10-08T16:14:01.201Z,12.63
2022-10-08T16:16:29.166Z,13.97
2022-10-08T16:18:59.365Z,13.30
2022-10-08T16:21:28.460Z,13.57
2022-10-08T16:23:56.817Z,13.53
2022-10-08T16:26:24.476Z,14.10
2022-10-08T16:28:56.419Z,14.17
2022-10-08T16:31:29.034Z,13.27
2022-10-08T16:33:57.677Z,14.83
2022-10-08T16:36:25.974Z,17.17
2022-10-08T16:38:53.575Z,17.13
2022-10-08T16:41:25.668Z,13.27
2022-10-08T16:43:54.847Z,12.83
2022-10-08T16:46:23.155Z,14.10
2022-10-08T16:48:58.028Z,13.90
2022-10-08T16:51:27.792Z,13.77
2022-10-08T16:53:57.479Z,13.90
2022-10-08T16:56:27.325Z,14.00
2022-10-08T16:58:56.800Z,14.37
2022-10-08T17:01:24.415Z,14.77
2022-10-08T17:03:51.747Z,14.40
2022-10-08T17:06:20.919Z,14.80
2022-10-08T17:08:47.996Z,14.10
2022-10-08T17:11:15.619Z,14.73
2022-10-08T17:13:48.508Z,14.07
2022-10-08T17:16:16.674Z,14.57
2022-10-08T17:18:46.631Z,15.70
2022-10-08T17:21:14.759Z,16.97
2022-10-08T17:23:42.143Z,16.10
2022-10-08T17:26:12.714Z,16.77
2022-10-08T17:28:42.281Z,16.50
2022-10-08T17:31:14.361Z,16.33
2022-10-08T17:33:42.570Z,16.70
2022-10-08T17:36:15.684Z,16.70
2022-10-08T17:38:44.412Z,17.07
2022-10-08T17:41:15.548Z,18.17
2022-10-08T17:43:43.299Z,18.23
2022-10-08T17:46:14.322Z,17.37
2022-10-08T17:48:42.109Z,18.87
2022-10-08T17:51:17.643Z,18.10
2022-10-08T17:53:45.348Z,18.80
2022-10-08T17:56:13.942Z,17.77
2022-10-08T17:58:40.929Z,17.73
2022-10-08T18:01:15.876Z,19.20
2022-10-08T18:03:44.628Z,19.07
2022-10-08T18:06:12.443Z,19.40
2022-10-08T18:08:39.384Z,18.70
2022-10-08T18:11:12.185Z,19.77
2022-10-08T18:13:40.647Z,19.60
2022-10-08T18:16:15.881Z,20.47
2022-10-08T18:18:44.516Z,20.00
2022-10-08T18:21:13.985Z,19.60
2022-10-08T18:23:42.887Z,21.67
2022-10-08T18:26:25.144Z,19.40
2022-10-08T18:28:57.875Z,19.47
2022-10-08T18:31:27.920Z,19.37
2022-10-08T18:34:16.637Z,18.80
2022-10-08T18:36:45.182Z,18.77
2022-10-08T18:39:14.626Z,19.53
2022-10-08T18:41:46.859Z,18.03
2022-10-08T18:44:17.753Z,18.63
2022-10-08T18:46:46.010Z,19.83
2022-10-08T18:49:19.394Z,17.63
2022-10-08T18:51:48.990Z,19.80
2022-10-08T18:54:16.062Z,18.53
2022-10-08T18:56:42.997Z,17.23
2022-10-08T18:59:15.439Z,17.97
2022-10-08T19:01:45.513Z,16.17
2022-10-08T19:04:15.669Z,16.13
2022-10-08T19:06:44.536Z,15.90
2022-10-08T19:09:12.270Z,16.50
2022-10-08T19:11:45.189Z,15.80
2022-10-08T19:14:15.044Z,18.10
2022-10-08T19:16:43.090Z,16.30
2022-10-08T19:19:15.780Z,16.07
2022-10-08T19:21:43.805Z,15.17
2022-10-08T19:24:18.076Z,15.20
2022-10-08T19:26:45.971Z,15.10
2022-10-08T19:29:21.797Z,13.93
2022-10-08T19:31:50.293Z,14.03
2022-10-08T19:34:27.365Z,14.40
2022-10-08T19:36:54.776Z,14.00
2022-10-08T19:39:27.518Z,14.53
2022-10-08T19:41:54.892Z,12.33
2022-10-08T19:44:21.955Z,13.33
2022-10-08T19:46:50.228Z,13.07
2022-10-08T19:49:18.242Z,13.23
2022-10-08T19:51:45.884Z,13.10
2022-10-08T19:54:13.733Z,12.23
2022-10-08T19:56:40.742Z,12.60
2022-10-08T19:59:09.160Z,12.00
2022-10-08T20:01:37.288Z,11.37
2022-10-08T20:04:06.276Z,11.60
2022-10-08T20:06:38.563Z,11.53
2022-10-08T20:09:07.262Z,11.97
2022-10-08T20:11:34.198Z,12.00
2022-10-08T20:14:01.267Z,11.17
2022-10-08T20:16:31.543Z,11.07
2022-10-08T20:19:01.759Z,10.67
2022-10-08T20:21:31.773Z,10.50
2022-10-08T20:23:59.217Z,11.57
2022-10-08T20:26:28.807Z,11.87
2022-10-08T20:29:04.807Z,10.63
2022-10-08T20:31:34.624Z,12.07
2022-10-08T20:34:12.691Z,11.30
2022-10-08T20:36:40.626Z,11.23
2022-10-08T20:39:07.859Z,11.37
2022-10-08T20:41:34.829Z,11.57
2022-10-08T20:44:03.872Z,10.73
2022-10-08T20:46:33.076Z,12.27
2022-10-08T20:49:00.612Z,11.67
2022-10-08T20:51:29.180Z,11.60
2022-10-08T20:53:58.798Z,12.40
2022-10-08T20:56:27.155Z,11.83
2022-10-08T20:58:54.820Z,11.97
2022-10-08T21:01:28.400Z,11.60
2022-10-08T21:03:56.367Z,12.23
2022-10-08T21:06:35.051Z,11.90
2022-10-08T21:09:02.312Z,12.57
2022-10-08T21:11:32.722Z,12.50
2022-10-08T21:14:01.648Z,11.77
2022-10-08T21:16:37.880Z,12.83
2022-10-08T21:19:18.929Z,11.57
2022-10-08T21:21:46.220Z,11.63
2022-10-08T21:24:13.162Z,11.63
2022-10-08T21:26:41.737Z,12.00
2022-10-08T21:29:11.579Z,11.47
2022-10-08T21:31:40.600Z,12.53
2022-10-08T21:34:08.174Z,11.80
2022-10-08T21:36:38.613Z,11.90
2022-10-08T21:39:07.470Z,12.50
2022-10-08T21:41:35.913Z,11.33
2022-10-08T21:44:05.652Z,10.80
2022-10-08T21:46:35.515Z,10.50
2022-10-08T21:49:05.817Z,10.90
2022-10-08T21:51:34.134Z,10.13
2022-10-08T21:54:02.867Z,11.53
2022-10-08T21:56:32.261Z,10.23
2022-10-08T21:59:01.279Z,10.00
2022-10-08T22:01:44.857Z,10.00
2022-10-08T22:04:17.482Z,9.57
2022-10-08T22:06:50.235Z,10.47
2022-10-08T22:09:23.502Z,9.77
2022-10-08T22:11:51.858Z,9.23
2022-10-08T22:14:19.218Z,9.90
2022-10-08T22:16:46.417Z,9.53
2022-10-08T22:19:13.840Z,10.20
2022-10-08T22:21:41.245Z,9.97
2022-10-08T22:24:08.363Z,10.13
2022-10-08T22:26:41.013Z,8.63
2022-10-08T22:29:08.312Z,9.10
2022-10-08T22:31:35.954Z,11.90
2022-10-08T22:34:03.320Z,8.37
2022-10-08T22:36:32.683Z,9.00
2022-10-08T22:38:59.818Z,8.80
2022-10-08T22:41:32.209Z,8.40
2022-10-08T22:44:00.015Z,7.67
2022-10-08T22:46:29.558Z,8.07
2022-10-08T22:48:58.880Z,7.33
2022-10-08T22:51:26.633Z,7.37
2022-10-08T22:53:53.843Z,7.33
2022-10-08T22:56:23.355Z,6.90
2022-10-08T22:58:50.946Z,6.23
2022-10-08T23:01:23.095Z,6.40
2022-10-08T23:03:50.290Z,6.33
2022-10-08T23:06:20.131Z,5.60
2022-10-08T23:08:52.367Z,5.93
2022-10-08T23:11:19.704Z,5.47
2022-10-08T23:13:51.062Z,5.60
2022-10-08T23:16:18.269Z,5.20
2022-10-08T23:18:51.296Z,4.80
2022-10-08T23:21:18.289Z,4.23
2022-10-08T23:23:46.610Z,5.13
2022-10-08T23:26:14.887Z,4.07
2022-10-08T23:28:43.569Z,4.37
2022-10-08T23:31:16.201Z,4.77
2022-10-08T23:33:46.418Z,4.60
2022-10-08T23:36:17.043Z,5.63
2022-10-08T23:38:44.634Z,5.23
2022-10-08T23:41:13.079Z,5.17
2022-10-08T23:43:44.380Z,4.63
2022-10-08T23:46:14.528Z,5.10
2022-10-08T23:48:42.488Z,5.33
2022-10-08T23:51:10.567Z,5.53
2022-10-08T23:53:38.370Z,5.80
2022-10-08T23:56:06.388Z,5.47
2022-10-08T23:58:33.848Z,5.97
